Time;durP1;ratioP1;P1;durP2;ratioP2;P2;SDS_P1;SDS_P2;PMS_P1;PMS_P2;Temp;Humidity;BMP_temperature;BMP_pressure;BME280_temperature;BME280_humidity;BME280_pressure;Samples;Min_cycle;Max_cycle;Signal;HPM_P1;HPM_P2
2021/06/08 00:02:11;;;;;;;7.13;6.43;;;16.70;99.70;;;;;;5073208;28;20105;-82
2021/06/08 00:04:36;;;;;;;6.88;6.18;;;16.70;99.80;;;;;;5073915;28;20028;-82
2021/06/08 00:07:02;;;;;;;6.97;6.28;;;16.70;99.90;;;;;;5073174;28;20032;-82
2021/06/08 00:09:31;;;;;;;6.60;5.97;;;16.80;99.90;;;;;;5056029;28;20032;-82
2021/06/08 00:11:57;;;;;;;7.63;5.80;;;16.80;99.90;;;;;;5089850;28;20111;-82
2021/06/08 00:14:23;;;;;;;6.47;5.88;;;16.80;99.70;;;;;;5072822;28;20123;-82
2021/06/08 00:16:48;;;;;;;5.88;5.25;;;16.80;99.80;;;;;;5072951;28;20025;-82
2021/06/08 00:19:14;;;;;;;6.00;5.40;;;16.90;99.60;;;;;;5055362;28;20029;-82
2021/06/08 00:21:40;;;;;;;5.97;5.07;;;16.90;99.60;;;;;;5085727;28;20028;-82
2021/06/08 00:24:06;;;;;;;6.88;5.32;;;16.90;99.50;;;;;;5085879;28;20497;-82
2021/06/08 00:26:33;;;;;;;8.05;5.75;;;16.90;99.50;;;;;;5072539;28;20469;-82
2021/06/08 00:29:01;;;;;;;5.75;5.15;;;16.90;99.70;;;;;;5072454;28;20024;-82
2021/06/08 00:31:29;;;;;;;7.43;5.82;;;16.90;99.50;;;;;;5072815;28;20032;-82
2021/06/08 00:33:55;;;;;;;6.63;5.85;;;16.80;99.70;;;;;;5072279;28;20037;-82
2021/06/08 00:36:21;;;;;;;8.93;6.35;;;16.80;99.60;;;;;;5073975;28;20031;-82
2021/06/08 00:38:49;;;;;;;7.25;6.30;;;16.70;99.70;;;;;;5072234;28;20021;-82
2021/06/08 00:41:31;;;;;;;6.55;5.90;;;16.60;99.80;;;;;;5072512;28;20029;-82
2021/06/08 00:44:01;;;;;;;6.70;6.00;;;16.60;99.90;;;;;;5073567;28;20381;-82
2021/06/08 00:46:29;;;;;;;5.97;5.47;;;16.60;99.90;;;;;;5072369;28;20041;-82
2021/06/08 00:48:55;;;;;;;6.55;5.90;;;16.60;99.90;;;;;;5072467;28;20412;-82
2021/06/08 00:51:20;;;;;;;8.15;6.28;;;16.60;99.90;;;;;;5073308;28;20109;-82
2021/06/08 00:53:49;;;;;;;6.43;5.50;;;16.50;99.90;;;;;;5073801;28;20406;-82
2021/06/08 00:56:15;;;;;;;7.25;5.75;;;16.50;99.90;;;;;;5072172;28;20435;-82
2021/06/08 00:58:41;;;;;;;6.22;5.60;;;16.50;99.90;;;;;;5073775;28;20515;-82
2021/06/08 01:01:14;;;;;;;6.80;5.60;;;16.50;99.90;;;;;;5073437;28;20024;-82
2021/06/08 01:03:40;;;;;;;8.35;5.63;;;16.50;99.90;;;;;;5072579;28;20039;-82
2021/06/08 01:06:08;;;;;;;6.05;5.45;;;16.50;99.80;;;;;;5073350;28;20103;-82
2021/06/08 01:08:34;;;;;;;5.97;5.38;;;16.50;99.80;;;;;;5073618;28;20021;-82
2021/06/08 01:11:07;;;;;;;5.22;4.82;;;16.50;99.70;;;;;;5073365;28;20031;-82
2021/06/08 01:13:35;;;;;;;6.03;5.43;;;16.50;99.70;;;;;;5072025;28;20024;-82
2021/06/08 01:16:05;;;;;;;6.53;5.50;;;16.60;99.70;;;;;;5073526;28;20036;-82
2021/06/08 01:18:30;;;;;;;6.72;5.95;;;16.60;99.70;;;;;;5072183;28;20028;-82
2021/06/08 01:21:05;;;;;;;6.00;5.40;;;16.60;99.70;;;;;;5071789;28;20066;-82
2021/06/08 01:23:34;;;;;;;6.90;5.90;;;16.60;99.60;;;;;;5071973;28;20115;-82
2021/06/08 01:26:02;;;;;;;8.38;7.47;;;16.60;99.70;;;;;;5073487;28;20097;-82
2021/06/08 01:28:34;;;;;;;6.45;5.85;;;16.60;99.90;;;;;;5055421;28;20025;-82
2021/06/08 01:31:06;;;;;;;7.97;7.20;;;16.60;99.70;;;;;;5072190;28;20020;-82
2021/06/08 01:33:33;;;;;;;7.35;6.40;;;16.60;99.90;;;;;;5076869;28;20040;-82
2021/06/08 01:36:00;;;;;;;7.00;6.30;;;16.60;99.90;;;;;;5059139;28;20024;-82
2021/06/08 01:38:30;;;;;;;6.07;5.55;;;16.60;99.90;;;;;;5075940;28;20033;-82
2021/06/08 01:40:56;;;;;;;9.32;6.75;;;16.60;99.80;;;;;;5075488;28;20059;-82
2021/06/08 01:43:29;;;;;;;6.82;6.20;;;16.60;99.90;;;;;;5077018;28;20036;-82
2021/06/08 01:45:56;;;;;;;6.35;5.78;;;16.60;99.90;;;;;;5075560;28;20028;-82
2021/06/08 01:48:24;;;;;;;8.18;6.80;;;16.70;99.90;;;;;;5075362;28;20033;-82
2021/06/08 01:50:51;;;;;;;8.02;7.10;;;16.70;99.90;;;;;;5076335;28;20525;-82
2021/06/08 01:53:42;;;;;;;6.30;5.70;;;16.60;99.90;;;;;;5076692;28;20116;-82
2021/06/08 01:56:16;;;;;;;7.45;6.10;;;16.70;99.90;;;;;;5076554;28;20025;-82
2021/06/08 01:58:56;;;;;;;8.15;6.82;;;16.70;99.90;;;;;;5059505;28;20840;-82
2021/06/08 02:01:30;;;;;;;8.48;7.15;;;16.70;99.90;;;;;;5092101;28;20050;-82
2021/06/08 02:04:03;;;;;;;10.82;7.88;;;16.70;99.90;;;;;;5076363;28;20032;-82
2021/06/08 02:07:02;;;;;;;9.38;7.25;;;16.70;99.90;;;;;;5076310;28;20074;-82
2021/06/08 02:09:43;;;;;;;8.77;6.60;;;16.70;99.90;;;;;;5072283;28;20110;-82
2021/06/08 02:12:17;;;;;;;10.30;7.07;;;16.80;99.90;;;;;;5074993;28;20044;-82
2021/06/08 02:15:04;;;;;;;9.27;7.63;;;16.80;99.90;;;;;;5058354;28;20039;-82
2021/06/08 02:17:52;;;;;;;14.93;11.90;;;16.70;99.90;;;;;;5076407;28;20028;-82
2021/06/08 02:20:29;;;;;;;23.25;19.98;;;16.60;99.90;;;;;;5075757;28;20028;-82
2021/06/08 02:22:59;;;;;;;57.15;49.38;;;16.60;99.90;;;;;;5074809;28;20039;-82
2021/06/08 02:25:29;;;;;;;29.13;25.50;;;16.60;99.90;;;;;;5076028;28;20029;-82
2021/06/08 02:27:58;;;;;;;16.00;14.32;;;16.60;99.90;;;;;;5058031;28;20037;-82
2021/06/08 02:30:26;;;;;;;15.80;12.65;;;16.60;99.90;;;;;;5076179;28;20024;-82
2021/06/08 02:32:55;;;;;;;11.13;9.93;;;16.50;99.90;;;;;;5058005;28;20048;-82
2021/06/08 02:35:25;;;;;;;10.93;9.82;;;16.60;99.90;;;;;;5058183;28;20025;-82
2021/06/08 02:37:52;;;;;;;;;;;16.60;99.90;;;;;;5073913;28;20375;-83
2021/06/08 02:40:22;;;;;;;21.60;17.08;;;16.60;99.90;;;;;;5075762;28;19913;-82
2021/06/08 02:42:50;;;;;;;23.55;21.10;;;16.60;99.90;;;;;;5074092;28;20036;-82
2021/06/08 02:45:20;;;;;;;27.17;24.48;;;16.60;99.90;;;;;;5075868;28;20060;-82
2021/06/08 02:47:49;;;;;;;13.23;11.88;;;16.70;99.90;;;;;;5075619;28;20078;-83
2021/06/08 02:50:20;;;;;;;10.03;9.10;;;16.70;99.90;;;;;;5075450;28;20025;-83
2021/06/08 02:52:53;;;;;;;15.85;13.93;;;16.70;99.90;;;;;;5075307;28;20318;-83
2021/06/08 02:55:27;;;;;;;9.55;8.55;;;16.70;99.90;;;;;;5074321;28;20031;-83
2021/06/08 02:58:01;;;;;;;9.32;8.43;;;16.70;99.90;;;;;;5073333;28;20032;-82
2021/06/08 03:00:27;;;;;;;8.57;7.68;;;16.70;99.90;;;;;;5057861;28;20024;-82
2021/06/08 03:03:00;;;;;;;12.35;8.65;;;16.70;99.90;;;;;;5074507;28;20025;-82
2021/06/08 03:05:49;;;;;;;10.88;8.32;;;16.70;99.90;;;;;;5074278;28;20024;-82
2021/06/08 03:08:41;;;;;;;9.60;8.52;;;16.70;99.90;;;;;;5057602;28;20021;-82
2021/06/08 03:11:20;;;;;;;9.77;8.02;;;16.70;99.90;;;;;;5058314;28;20390;-82
2021/06/08 03:13:48;;;;;;;9.65;8.50;;;16.80;99.90;;;;;;5073725;28;20021;-82
2021/06/08 03:16:15;;;;;;;8.95;8.05;;;16.60;99.90;;;;;;5074748;28;20059;-82
2021/06/08 03:18:44;;;;;;;620.92;458.95;;;16.70;99.90;;;;;;5074893;28;20074;-82
2021/06/08 03:21:15;;;;;;;23.98;18.23;;;16.80;99.90;;;;;;5073679;28;20032;-82
2021/06/08 03:23:45;;;;;;;12.27;9.85;;;16.80;99.90;;;;;;5073618;28;20441;-82
2021/06/08 03:26:13;;;;;;;9.82;8.82;;;16.80;99.90;;;;;;5073484;28;20033;-82
2021/06/08 03:28:49;;;;;;;8.93;8.02;;;16.90;99.90;;;;;;5074896;28;20044;-82
2021/06/08 03:31:25;;;;;;;10.52;9.27;;;16.80;99.90;;;;;;5074477;28;20031;-82
2021/06/08 03:33:59;;;;;;;12.75;8.10;;;16.80;99.90;;;;;;5073038;28;20136;-82
2021/06/08 03:36:28;;;;;;;16.20;9.45;;;16.70;99.90;;;;;;5073354;28;20074;-82
2021/06/08 03:38:55;;;;;;;15.00;9.95;;;16.80;99.90;;;;;;5074656;28;20428;-82
2021/06/08 03:41:31;;;;;;;10.30;8.70;;;16.80;99.90;;;;;;5074317;28;20032;-82
2021/06/08 03:43:58;;;;;;;12.80;9.48;;;16.90;99.90;;;;;;5073237;28;20085;-81
2021/06/08 03:46:35;;;;;;;9.68;8.68;;;16.90;99.90;;;;;;5073421;28;20028;-81
2021/06/08 03:49:05;;;;;;;10.07;9.07;;;16.90;99.90;;;;;;5072981;28;20032;-82
2021/06/08 03:51:35;;;;;;;10.30;9.23;;;17.00;99.90;;;;;;5073529;28;20477;-83
2021/06/08 03:54:04;;;;;;;9.80;8.57;;;17.10;99.90;;;;;;5072353;28;20366;-81
2021/06/08 03:56:57;;;;;;;9.07;8.18;;;17.20;99.90;;;;;;5072720;28;20031;-84
2021/06/08 03:59:26;;;;;;;10.05;8.90;;;17.30;99.90;;;;;;5072296;28;20094;-82
2021/06/08 04:01:55;;;;;;;9.75;8.23;;;17.40;99.90;;;;;;5074115;28;20527;-83
2021/06/08 04:04:24;;;;;;;9.65;8.75;;;17.50;99.90;;;;;;5073822;28;20078;-84
2021/06/08 04:06:50;;;;;;;9.57;8.47;;;17.50;99.90;;;;;;5074036;28;20474;-82
2021/06/08 04:09:18;;;;;;;10.23;8.30;;;17.60;99.90;;;;;;5074278;28;20025;-83
2021/06/08 04:11:52;;;;;;;11.70;8.38;;;17.60;99.90;;;;;;5072212;28;20123;-82
2021/06/08 04:14:21;;;;;;;10.20;8.70;;;17.70;99.90;;;;;;5072598;28;20102;-81
2021/06/08 04:16:50;;;;;;;12.57;9.25;;;17.70;99.90;;;;;;5073031;28;20034;-82
2021/06/08 04:19:18;;;;;;;14.07;10.90;;;17.70;99.90;;;;;;5083912;28;20030;-85
2021/06/08 04:21:50;;;;;;;14.70;13.15;;;17.60;99.90;;;;;;5074061;28;20017;-87
2021/06/08 04:24:16;;;;;;;25.83;20.45;;;17.70;99.90;;;;;;5073342;28;20059;-87
2021/06/08 04:26:45;;;;;;;18.45;16.45;;;17.70;99.80;;;;;;5072869;28;20469;-87
2021/06/08 04:29:10;;;;;;;10.32;9.25;;;17.70;99.70;;;;;;5089250;28;20024;-81
2021/06/08 04:31:40;;;;;;;9.85;8.85;;;17.70;99.80;;;;;;5072499;28;20036;-81
2021/06/08 04:34:08;;;;;;;10.63;9.30;;;17.60;99.90;;;;;;5071998;28;20044;-81
2021/06/08 04:36:33;;;;;;;10.95;9.55;;;17.50;99.90;;;;;;5072519;28;20112;-80
2021/06/08 04:39:29;;;;;;;10.88;9.13;;;17.50;99.90;;;;;;5072360;28;20060;-82
2021/06/08 04:41:56;;;;;;;11.65;8.77;;;17.50;99.90;;;;;;5072419;28;20021;-83
2021/06/08 04:44:23;;;;;;;9.00;8.20;;;17.40;99.90;;;;;;5071970;28;20470;-82
2021/06/08 04:46:48;;;;;;;10.23;9.00;;;17.60;99.90;;;;;;5072366;28;20029;-82
2021/06/08 04:49:16;;;;;;;9.02;8.13;;;17.70;99.90;;;;;;5073399;28;20047;-85
2021/06/08 04:51:44;;;;;;;10.10;9.10;;;17.80;99.90;;;;;;5055857;28;20428;-82
2021/06/08 04:54:22;;;;;;;11.13;9.40;;;17.80;99.90;;;;;;5073388;28;20028;-83
2021/06/08 04:56:51;;;;;;;10.00;8.85;;;17.90;99.80;;;;;;5072176;28;20033;-80
2021/06/08 04:59:47;;;;;;;12.43;8.45;;;17.90;99.60;;;;;;5073397;28;20075;-81
2021/06/08 05:05:32;;;;;;;9.50;8.27;;;17.90;99.60;;;;;;5073768;28;20104;-82
2021/06/08 05:08:20;;;;;;;25.05;20.73;;;18.00;99.60;;;;;;5077453;28;20021;-83
2021/06/08 05:11:01;;;;;;;12.73;9.15;;;18.20;99.50;;;;;;5077410;28;20016;-83
2021/06/08 05:13:33;;;;;;;9.05;8.15;;;18.30;99.50;;;;;;5077150;28;20025;-84
2021/06/08 05:16:03;;;;;;;10.75;8.13;;;18.40;99.40;;;;;;5081585;28;20373;-84
2021/06/08 05:18:33;;;;;;;12.55;8.23;;;18.60;99.30;;;;;;5097555;28;20566;-84
2021/06/08 05:21:06;;;;;;;10.80;7.65;;;18.80;98.90;;;;;;5096213;28;20036;-84
2021/06/08 05:23:36;;;;;;;10.07;7.95;;;19.00;98.60;;;;;;5096128;28;20028;-83
2021/06/08 05:26:02;;;;;;;;;;;19.20;98.30;;;;;;5098061;28;20032;-84
2021/06/08 05:28:38;;;;;;;9.00;7.80;;;19.30;97.70;;;;;;5097399;28;19904;-83
2021/06/08 05:31:08;;;;;;;8.13;7.30;;;19.20;98.10;;;;;;5079768;28;20473;-84
2021/06/08 05:33:37;;;;;;;7.65;6.70;;;19.40;98.10;;;;;;5095793;28;20123;-85
2021/06/08 05:36:03;;;;;;;10.95;7.47;;;19.50;97.80;;;;;;5095830;28;20028;-84
2021/06/08 05:38:42;;;;;;;10.57;7.32;;;19.60;97.40;;;;;;5095980;28;20078;-83
2021/06/08 05:41:14;;;;;;;8.95;7.88;;;19.30;97.70;;;;;;5096071;28;20501;-84
2021/06/08 05:43:47;;;;;;;9.30;7.93;;;18.90;98.30;;;;;;5095849;28;20031;-85
2021/06/08 05:46:14;;;;;;;8.82;7.93;;;18.80;98.60;;;;;;5083789;28;20059;-84
2021/06/08 05:48:48;;;;;;;9.23;7.30;;;18.70;98.90;;;;;;5076702;28;20074;-83
2021/06/08 05:51:13;;;;;;;9.35;7.45;;;18.70;98.90;;;;;;5075517;28;20021;-83
2021/06/08 05:53:43;;;;;;;8.50;7.43;;;18.60;99.10;;;;;;5075057;28;20036;-84
2021/06/08 05:56:09;;;;;;;9.20;7.50;;;18.70;99.20;;;;;;5076854;28;20103;-83
2021/06/08 05:58:39;;;;;;;8.20;7.40;;;18.70;99.30;;;;;;5075208;28;20394;-83
2021/06/08 06:01:07;;;;;;;8.32;7.22;;;18.80;99.20;;;;;;5076400;28;20027;-84
2021/06/08 06:03:36;;;;;;;8.20;7.40;;;18.90;99.10;;;;;;5075157;28;20027;-83
2021/06/08 06:06:17;;;;;;;8.43;7.55;;;19.00;98.80;;;;;;5076366;28;20020;-82
2021/06/08 06:08:43;;;;;;;10.18;7.68;;;19.00;98.60;;;;;;5075079;28;20086;-83
2021/06/08 06:11:16;;;;;;;9.02;7.80;;;19.10;98.70;;;;;;5075037;28;20060;-84
2021/06/08 06:13:51;;;;;;;9.40;8.13;;;19.20;98.40;;;;;;5074819;28;20035;-82
2021/06/08 06:16:18;;;;;;;9.40;7.90;;;19.20;98.70;;;;;;5071963;28;20032;-83
2021/06/08 06:18:52;;;;;;;9.02;8.13;;;19.20;98.70;;;;;;5094341;28;20107;-83
2021/06/08 06:21:18;;;;;;;9.15;7.80;;;19.30;98.80;;;;;;5094181;28;20099;-84
2021/06/08 06:23:47;;;;;;;13.13;9.57;;;19.40;98.70;;;;;;5096549;28;20028;-83
2021/06/08 06:26:18;;;;;;;11.07;9.70;;;19.60;98.40;;;;;;5096262;28;20024;-84
2021/06/08 06:28:46;;;;;;;8.73;7.80;;;19.70;98.10;;;;;;5096267;28;20417;-84
2021/06/08 06:31:12;;;;;;;7.47;6.65;;;19.70;97.80;;;;;;5094911;28;20031;-83
2021/06/08 06:33:53;;;;;;;7.85;7.03;;;19.70;98.00;;;;;;5095755;28;20397;-84
2021/06/08 06:36:23;;;;;;;7.38;6.60;;;19.80;97.80;;;;;;5079004;28;20028;-84
2021/06/08 06:39:20;;;;;;;7.88;7.07;;;19.90;97.60;;;;;;5095077;28;20036;-86
2021/06/08 06:41:52;;;;;;;8.02;7.15;;;19.70;97.30;;;;;;5094946;28;20031;-83
2021/06/08 06:44:22;;;;;;;8.30;7.50;;;19.50;97.90;;;;;;5094750;28;20028;-83
2021/06/08 06:46:55;;;;;;;7.93;7.13;;;19.60;97.80;;;;;;5076876;28;20027;-83
2021/06/08 06:49:26;;;;;;;8.40;6.63;;;19.70;97.80;;;;;;5074361;28;20064;-83
2021/06/08 06:51:58;;;;;;;7.57;6.85;;;19.70;97.70;;;;;;5074212;28;20059;-83
2021/06/08 06:54:30;;;;;;;7.78;6.57;;;19.70;97.30;;;;;;5074109;28;20020;-84
2021/06/08 06:57:01;;;;;;;8.65;6.75;;;19.80;97.50;;;;;;5075723;28;20017;-83
2021/06/08 06:59:27;;;;;;;8.25;7.38;;;19.80;97.60;;;;;;5075436;28;20070;-84
2021/06/08 07:01:59;;;;;;;9.07;7.00;;;19.90;97.30;;;;;;5074055;28;20083;-84
2021/06/08 07:04:26;;;;;;;8.93;8.02;;;19.90;97.20;;;;;;5075281;28;20029;-83
2021/06/08 07:07:02;;;;;;;9.63;7.28;;;19.90;97.30;;;;;;5075234;28;20406;-84
2021/06/08 07:09:28;;;;;;;7.07;6.38;;;20.00;97.10;;;;;;5074100;28;20035;-84
2021/06/08 07:11:56;;;;;;;11.70;7.75;;;19.90;97.00;;;;;;5073849;28;20402;-84
2021/06/08 07:14:43;;;;;;;8.55;6.93;;;20.00;97.30;;;;;;5075001;28;20039;-84
2021/06/08 07:17:16;;;;;;;7.45;6.68;;;20.10;96.90;;;;;;5073744;28;20025;-84
2021/06/08 07:19:55;;;;;;;9.00;6.93;;;20.20;96.80;;;;;;5075064;28;20029;-85
2021/06/08 07:22:21;;;;;;;7.93;6.28;;;20.30;96.30;;;;;;5073914;28;20826;-84
2021/06/08 07:24:54;;;;;;;8.25;6.82;;;20.30;96.40;;;;;;5074687;28;20182;-84
2021/06/08 07:27:22;;;;;;;7.90;7.20;;;20.40;96.60;;;;;;5074785;28;20020;-83
2021/06/08 07:30:07;;;;;;;7.75;6.95;;;20.40;96.40;;;;;;5074709;28;20021;-84
2021/06/08 07:33:10;;;;;;;7.55;6.75;;;20.50;96.20;;;;;;5073723;28;20024;-85
2021/06/08 07:36:15;;;;;;;7.35;6.55;;;20.50;96.50;;;;;;5073290;28;20568;-84
2021/06/08 07:38:52;;;;;;;9.00;6.40;;;20.60;96.20;;;;;;5069915;28;20037;-86
2021/06/08 07:41:30;;;;;;;6.97;6.05;;;20.60;96.10;;;;;;5074516;28;20027;-85
2021/06/08 07:44:01;;;;;;;7.22;6.40;;;20.70;95.90;;;;;;5074345;28;20050;-84
2021/06/08 07:46:36;;;;;;;8.88;6.05;;;20.70;96.10;;;;;;5074197;28;20021;-84
2021/06/08 07:49:05;;;;;;;6.97;6.15;;;20.90;96.10;;;;;;5074314;28;20036;-84
2021/06/08 07:51:32;;;;;;;8.43;6.47;;;21.00;95.70;;;;;;5072940;28;20028;-82
2021/06/08 07:54:01;;;;;;;6.70;6.00;;;20.90;95.80;;;;;;5072913;28;20032;-83
2021/06/08 07:56:29;;;;;;;7.00;6.40;;;20.90;95.80;;;;;;5072899;28;20042;-83
2021/06/08 07:58:54;;;;;;;8.20;6.45;;;20.90;96.00;;;;;;5072903;28;20516;-84
2021/06/08 08:01:21;;;;;;;7.00;5.88;;;21.00;96.10;;;;;;5074140;28;20482;-83
2021/06/08 08:03:58;;;;;;;7.32;5.70;;;21.10;96.00;;;;;;5074089;28;20549;-82
2021/06/08 08:06:24;;;;;;;7.40;5.90;;;21.20;95.70;;;;;;5074337;28;20413;-83
2021/06/08 08:08:55;;;;;;;6.18;5.57;;;21.40;95.10;;;;;;5074120;28;20108;-84
2021/06/08 08:11:24;;;;;;;5.85;5.20;;;21.40;94.90;;;;;;5074369;28;20483;-83
2021/06/08 08:13:59;;;;;;;10.57;6.93;;;21.40;94.50;;;;;;5072614;28;20074;-83
2021/06/08 08:16:30;;;;;;;8.98;5.57;;;21.50;94.80;;;;;;5089102;28;20029;-87
2021/06/08 08:19:02;;;;;;;9.18;5.63;;;21.70;93.50;;;;;;5073335;28;20020;-84
2021/06/08 08:21:30;;;;;;;5.68;4.60;;;21.70;93.80;;;;;;5072628;28;20021;-83
2021/06/08 08:24:04;;;;;;;9.10;5.10;;;21.70;93.30;;;;;;5074391;28;20103;-84
2021/06/08 08:26:30;;;;;;;5.28;4.78;;;21.60;93.60;;;;;;5074118;28;20033;-84
2021/06/08 08:28:59;;;;;;;5.50;4.68;;;21.70;93.80;;;;;;5073845;28;20029;-86
2021/06/08 08:31:28;;;;;;;4.95;4.45;;;21.60;93.40;;;;;;5074001;28;20479;-85
2021/06/08 08:33:57;;;;;;;5.57;4.55;;;21.70;93.70;;;;;;5072237;28;20419;-84
2021/06/08 08:36:39;;;;;;;;;;;;;;;;;;;;;
2021/06/08 08:39:07;;;;;;;5.65;5.10;;;21.90;93.50;;;;;;5073243;28;20028;-84
2021/06/08 08:41:35;;;;;;;5.70;5.20;;;21.90;93.30;;;;;;5073210;28;20052;-85
2021/06/08 08:44:19;;;;;;;4.97;4.47;;;21.90;93.20;;;;;;5073483;28;20079;-85
2021/06/08 08:46:47;;;;;;;4.68;4.28;;;22.00;92.50;;;;;;5072273;28;20810;-85
2021/06/08 08:49:16;;;;;;;5.70;4.30;;;22.10;92.50;;;;;;5073633;28;20021;-84
2021/06/08 08:51:50;;;;;;;9.48;4.80;;;22.10;92.40;;;;;;5055880;28;20032;-85
2021/06/08 08:54:20;;;;;;;7.20;3.88;;;22.10;92.30;;;;;;5073508;28;20169;-83
2021/06/08 08:56:49;;;;;;;4.40;4.00;;;22.30;92.30;;;;;;5072545;28;20028;-84
2021/06/08 08:59:17;;;;;;;7.68;4.00;;;22.30;91.90;;;;;;5072474;28;20035;-87
2021/06/08 09:01:49;;;;;;;8.27;3.95;;;22.40;91.50;;;;;;5072294;28;20493;-85
2021/06/08 09:04:19;;;;;;;7.65;3.70;;;22.40;91.80;;;;;;5073504;28;20074;-85
2021/06/08 09:06:45;;;;;;;3.85;3.55;;;22.50;91.60;;;;;;5072219;28;20024;-87
2021/06/08 09:09:14;;;;;;;4.47;3.90;;;22.40;91.00;;;;;;5072218;28;20055;-84
2021/06/08 09:11:41;;;;;;;4.57;3.70;;;22.40;91.20;;;;;;5072165;28;20470;-86
2021/06/08 09:14:09;;;;;;;4.88;3.50;;;22.40;91.00;;;;;;5072328;28;20541;-84
2021/06/08 09:16:35;;;;;;;6.15;3.88;;;22.60;91.10;;;;;;5072220;28;20032;-85
2021/06/08 09:19:05;;;;;;;4.60;3.60;;;22.80;90.60;;;;;;5072027;28;20051;-82
2021/06/08 09:21:51;;;;;;;3.95;3.47;;;23.00;90.40;;;;;;5073305;28;20028;-84
2021/06/08 09:24:23;;;;;;;5.53;3.60;;;23.20;90.40;;;;;;5072991;28;20473;-84
2021/06/08 09:27:08;;;;;;;5.63;3.53;;;23.40;88.60;;;;;;5072025;28;20078;-87
2021/06/08 09:29:55;;;;;;;3.65;3.35;;;23.30;88.90;;;;;;5071955;28;20032;-86
2021/06/08 09:32:20;;;;;;;3.90;3.38;;;23.00;89.00;;;;;;5071996;28;20033;-84
2021/06/08 09:34:58;;;;;;;3.97;3.50;;;23.10;89.40;;;;;;5071910;28;20066;-86
2021/06/08 09:37:37;;;;;;;3.42;3.20;;;23.00;87.90;;;;;;5071998;28;20021;-83
2021/06/08 09:40:19;;;;;;;3.88;3.47;;;22.80;89.00;;;;;;5073134;28;20017;-85
2021/06/08 09:42:48;;;;;;;3.70;3.40;;;22.80;90.00;;;;;;5072031;28;20059;-86
2021/06/08 09:45:18;;;;;;;6.47;3.10;;;22.60;89.10;;;;;;5071650;28;20025;-85
2021/06/08 09:47:56;;;;;;;4.07;3.78;;;22.60;89.00;;;;;;5073519;28;20020;-85
2021/06/08 09:50:51;;;;;;;3.85;3.40;;;22.50;89.30;;;;;;5073258;28;20495;-84
2021/06/08 09:53:27;;;;;;;4.07;3.45;;;22.50;89.20;;;;;;5075316;28;20031;-88
2021/06/08 09:55:59;;;;;;;5.50;4.38;;;22.60;89.20;;;;;;5076786;28;20025;-84
2021/06/08 09:58:29;;;;;;;6.63;3.40;;;22.60;89.80;;;;;;5076939;28;20025;-84
2021/06/08 10:01:14;;;;;;;6.20;3.42;;;22.70;89.50;;;;;;5076430;28;20470;-86
2021/06/08 10:03:48;;;;;;;3.55;3.25;;;23.00;88.90;;;;;;5091941;28;20032;-84
2021/06/08 10:06:23;;;;;;;4.10;3.70;;;23.20;88.20;;;;;;5076402;28;20102;-83
2021/06/08 10:09:10;;;;;;;4.38;3.33;;;23.40;87.60;;;;;;5076485;28;20052;-86
2021/06/08 10:11:37;;;;;;;4.43;4.03;;;23.70;87.40;;;;;;5075172;28;20052;-87
2021/06/08 10:14:17;;;;;;;4.63;3.60;;;23.80;89.40;;;;;;5074800;28;20081;-84
2021/06/08 10:16:44;;;;;;;3.92;3.53;;;23.90;90.30;;;;;;5074700;28;20029;-85
2021/06/08 10:19:23;;;;;;;5.32;4.57;;;24.00;90.10;;;;;;5076091;28;20032;-87
2021/06/08 10:21:53;;;;;;;6.05;4.32;;;23.90;90.00;;;;;;5076156;28;20049;-85
2021/06/08 10:24:41;;;;;;;5.28;4.60;;;23.70;90.30;;;;;;5058539;28;20115;-85
2021/06/08 10:27:10;;;;;;;5.32;4.50;;;23.50;90.60;;;;;;5071256;28;20470;-84
2021/06/08 10:29:35;;;;;;;6.50;3.95;;;23.00;91.50;;;;;;5076240;28;20036;-85
2021/06/08 10:32:04;;;;;;;4.55;2.95;;;22.70;91.40;;;;;;5074694;28;20036;-83
2021/06/08 10:34:33;;;;;;;2.97;2.78;;;22.40;87.70;;;;;;5074368;28;20094;-84
2021/06/08 10:37:04;;;;;;;3.80;3.00;;;22.20;88.60;;;;;;5058365;28;20032;-85
2021/06/08 10:39:48;;;;;;;3.28;2.97;;;22.10;88.20;;;;;;5075550;28;20021;-84
2021/06/08 10:42:16;;;;;;;4.78;3.65;;;22.00;88.80;;;;;;5075623;28;20031;-88
2021/06/08 10:44:43;;;;;;;3.53;3.22;;;21.80;90.30;;;;;;5074314;28;20478;-80
2021/06/08 10:47:32;;;;;;;4.82;3.30;;;21.60;90.60;;;;;;5075615;28;20035;-81
2021/06/08 10:49:58;;;;;;;9.20;3.45;;;21.40;91.50;;;;;;5074470;28;20048;-88
2021/06/08 10:52:29;;;;;;;65.43;8.25;;;21.00;92.40;;;;;;5074519;28;20032;-82
2021/06/08 10:54:55;;;;;;;42.92;8.45;;;19.70;99.60;;;;;;5057858;28;20367;-84
2021/06/08 10:57:46;;;;;;;16.58;8.35;;;18.30;99.90;;;;;;5075468;28;20032;-85
2021/06/08 11:00:26;;;;;;;9.32;6.70;;;17.50;99.90;;;;;;5075451;28;20025;-85
2021/06/08 11:03:06;;;;;;;;;;;;;;;;;;;;;
2021/06/08 11:05:59;;;;;;;10.48;8.30;;;17.30;99.90;;;;;;5075659;28;20031;-86
2021/06/08 11:09:00;;;;;;;10.35;8.93;;;17.30;99.90;;;;;;5075592;28;20078;-87
2021/06/08 11:12:05;;;;;;;12.00;10.35;;;17.50;99.90;;;;;;5074479;28;20139;-87
2021/06/08 11:14:54;;;;;;;9.82;8.48;;;17.60;99.90;;;;;;5103412;28;20081;-88
2021/06/08 11:17:52;;;;;;;12.20;10.73;;;17.80;99.90;;;;;;5095761;28;20020;-87
2021/06/08 11:20:19;;;;;;;12.95;9.68;;;17.90;99.90;;;;;;5086624;28;20036;-88
2021/06/08 11:22:58;;;;;;;18.02;14.30;;;18.10;99.90;;;;;;5094606;28;20024;-89
2021/06/08 11:25:42;;;;;;;15.68;13.40;;;18.10;99.90;;;;;;5096132;28;20024;-88
2021/06/08 11:28:09;;;;;;;13.93;11.98;;;18.30;99.90;;;;;;5091898;28;20024;-90
2021/06/08 11:31:11;;;;;;;19.75;15.05;;;18.50;99.90;;;;;;5074591;28;20462;-89
2021/06/08 11:33:44;;;;;;;16.60;12.93;;;18.60;99.90;;;;;;5072845;28;20131;-90
2021/06/08 11:36:29;;;;;;;;;;;;;;;;;;;;;
2021/06/08 11:39:20;;;;;;;16.05;13.60;;;18.70;99.90;;;;;;5076626;28;20016;-88
2021/06/08 11:42:11;;;;;;;12.93;10.20;;;18.70;99.90;;;;;;5073703;28;20025;-88
2021/06/08 11:48:00;;;;;;;10.13;8.98;;;18.50;99.90;;;;;;5071464;28;20086;-91
2021/06/08 11:51:01;;;;;;;8.93;8.13;;;18.50;99.90;;;;;;5075091;28;20028;-92
2021/06/08 11:53:48;;;;;;;7.38;6.60;;;18.50;99.90;;;;;;5074619;28;20421;-94
2021/06/08 11:56:17;;;;;;;7.80;5.53;;;18.40;99.90;;;;;;5075805;28;20020;-93
2021/06/08 11:59:06;;;;;;;6.53;5.93;;;18.30;99.90;;;;;;5074987;28;20036;-92
2021/06/08 12:01:48;;;;;;;8.77;7.88;;;18.20;99.90;;;;;;5085497;28;20056;-93
2021/06/08 12:04:27;;;;;;;8.35;7.13;;;18.30;99.90;;;;;;5074002;28;20115;-90
2021/06/08 12:07:08;;;;;;;6.93;6.10;;;18.30;99.90;;;;;;5074629;28;20017;-91
2021/06/08 12:09:41;;;;;;;6.63;6.13;;;18.20;99.90;;;;;;5074844;28;20095;-96
2021/06/08 12:12:22;;;;;;;7.53;6.75;;;18.20;99.90;;;;;;5071998;28;20107;-92
2021/06/08 12:14:48;;;;;;;7.25;6.55;;;18.30;99.90;;;;;;5074011;28;20032;-93
2021/06/08 12:17:14;;;;;;;5.13;4.72;;;18.40;99.90;;;;;;5075082;28;20021;-88
2021/06/08 12:19:42;;;;;;;5.53;4.78;;;18.50;99.90;;;;;;5073909;28;20023;-91
2021/06/08 12:22:42;;;;;;;9.27;5.13;;;18.50;99.90;;;;;;5073556;28;20092;-89
2021/06/08 12:25:15;;;;;;;5.28;4.78;;;18.70;99.90;;;;;;5073461;28;20418;-89
2021/06/08 12:27:46;;;;;;;4.53;4.13;;;18.70;99.90;;;;;;5075045;28;20028;-91
2021/06/08 12:30:33;;;;;;;4.15;3.72;;;18.90;99.90;;;;;;5073331;28;20028;-90
2021/06/08 12:33:05;;;;;;;4.53;4.13;;;19.20;99.90;;;;;;5056874;28;20115;-96
2021/06/08 12:35:43;;;;;;;6.78;3.92;;;19.40;99.90;;;;;;5077394;28;20024;-90
2021/06/08 12:38:19;;;;;;;8.30;4.47;;;19.60;99.90;;;;;;5041719;28;20360;-93
2021/06/08 12:41:13;;;;;;;4.15;3.63;;;19.70;99.90;;;;;;5074432;28;20024;-90
2021/06/08 12:43:55;;;;;;;4.28;3.92;;;19.80;99.90;;;;;;5074654;28;20037;-90
2021/06/08 12:46:41;;;;;;;3.40;3.10;;;20.00;99.90;;;;;;5074435;28;20047;-88
2021/06/08 12:49:17;;;;;;;3.50;3.20;;;20.20;99.70;;;;;;5056804;28;20056;-89
2021/06/08 12:51:56;;;;;;;3.53;3.10;;;20.30;99.90;;;;;;5074322;28;20028;-88
2021/06/08 12:54:28;;;;;;;5.88;2.85;;;20.60;99.90;;;;;;5072878;28;20428;-91
2021/06/08 12:56:53;;;;;;;3.97;3.17;;;20.90;99.30;;;;;;5073702;28;20025;-94
2021/06/08 12:59:27;;;;;;;4.40;3.40;;;21.10;97.60;;;;;;5074341;28;20066;-92
2021/06/08 13:02:02;;;;;;;3.53;3.13;;;21.40;96.70;;;;;;5074550;28;20021;-90
2021/06/08 13:04:29;;;;;;;3.30;3.00;;;21.60;98.90;;;;;;5073462;28;20028;-89
2021/06/08 13:07:06;;;;;;;3.35;3.05;;;21.90;95.00;;;;;;5073460;28;20021;-91
2021/06/08 13:09:57;;;;;;;3.00;2.72;;;22.20;95.40;;;;;;5074066;28;20058;-89
2021/06/08 13:12:24;;;;;;;3.13;2.92;;;22.70;95.50;;;;;;5073916;28;20103;-87
2021/06/08 13:15:18;;;;;;;3.50;2.55;;;22.90;92.40;;;;;;5074142;28;20035;-90
2021/06/08 13:17:50;;;;;;;2.90;2.63;;;23.10;92.70;;;;;;5073045;28;20016;-88
2021/06/08 13:20:24;;;;;;;3.30;3.00;;;23.20;92.80;;;;;;5057196;28;20462;-91
2021/06/08 13:22:50;;;;;;;5.00;3.28;;;23.30;91.40;;;;;;5074037;28;20073;-94
2021/06/08 13:25:30;;;;;;;5.68;2.45;;;23.60;93.00;;;;;;5073939;28;20025;-90
2021/06/08 13:27:58;;;;;;;4.22;2.80;;;23.80;91.50;;;;;;5075157;28;20063;-85